Time,TemperatureF,DewpointF,PressureIn,WindDirection,WindDirectionDegrees,WindSpeedMPH,WindSpeedGustMPH,Humidity,HourlyPrecipIn,Conditions,Clouds,dailyrainin,SoftwareType,DateUTC
2013-10-26 00:07:00,44.1,34.0,29.97,WSW,240,0.0,0.0,68,0.00,,,0.00,weatherlink.com 1.10,2013-10-26 05:07:00,
2013-10-26 00:22:00,43.9,34.0,29.97,SW,231,0.0,0.0,69,0.00,,,0.00,weatherlink.com 1.10,2013-10-26 05:22:00,
2013-10-26 00:37:00,44.5,34.0,29.97,SW,230,0.0,0.0,67,0.00,,,0.00,weatherlink.com 1.10,2013-10-26 05:37:00,
2013-10-26 00:52:00,45.1,34.0,29.97,West,260,0.0,0.0,66,0.00,,,0.00,weatherlink.com 1.10,2013-10-26 05:52:00,
2013-10-26 01:07:00,45.3,34.0,29.97,WSW,241,0.0,0.0,65,0.00,,,0.00,weatherlink.com 1.10,2013-10-26 06:07:00,
2013-10-26 01:22:00,44.8,34.0,29.96,WSW,243,0.0,0.0,67,0.00,,,0.00,weatherlink.com 1.10,2013-10-26 06:22:00,
2013-10-26 01:37:00,44.6,34.0,29.96,WSW,254,0.0,0.0,67,0.00,,,0.00,weatherlink.com 1.10,2013-10-26 06:37:00,
2013-10-26 01:52:00,44.4,34.0,29.96,West,259,0.0,0.0,68,0.00,,,0.00,weatherlink.com 1.10,2013-10-26 06:52:00,
2013-10-26 02:08:00,43.8,34.0,29.96,West,266,0.0,0.0,69,0.00,,,0.00,weatherlink.com 1.10,2013-10-26 07:08:00,
2013-10-26 02:23:00,43.5,34.0,29.96,WSW,252,0.0,0.0,70,0.00,,,0.00,weatherlink.com 1.10,2013-10-26 07:23:00,
2013-10-26 02:38:00,43.4,35.0,29.96,West,278,0.0,0.0,71,0.00,,,0.00,weatherlink.com 1.10,2013-10-26 07:38:00,
2013-10-26 02:53:00,43.1,35.0,29.97,West,274,0.0,0.0,73,0.00,,,0.00,weatherlink.com 1.10,2013-10-26 07:53:00,
2013-10-26 03:08:00,42.4,35.0,29.97,WNW,285,0.0,0.0,75,0.00,,,0.00,weatherlink.com 1.10,2013-10-26 08:08:00,
2013-10-26 03:24:00,42.5,36.0,29.98,WNW,293,0.0,0.0,78,0.00,,,0.00,weatherlink.com 1.10,2013-10-26 08:24:00,
2013-10-26 03:38:00,42.9,36.0,29.98,WNW,303,0.0,0.0,77,0.00,,,0.00,weatherlink.com 1.10,2013-10-26 08:38:00,
2013-10-26 03:53:00,42.5,36.0,29.98,WNW,298,0.0,0.0,79,0.00,,,0.00,weatherlink.com 1.10,2013-10-26 08:53:00,
2013-10-26 04:08:00,43.1,36.0,29.98,NW,318,0.0,0.0,77,0.00,,,0.00,weatherlink.com 1.10,2013-10-26 09:08:00,
2013-10-26 04:23:00,42.5,36.0,29.98,NW,312,0.0,0.0,77,0.00,,,0.00,weatherlink.com 1.10,2013-10-26 09:23:00,
2013-10-26 04:38:00,42.5,35.0,29.99,WNW,302,0.0,0.0,76,0.00,,,0.00,weatherlink.com 1.10,2013-10-26 09:38:00,
2013-10-26 04:53:00,42.0,35.0,30.00,WNW,299,0.0,0.0,75,0.00,,,0.00,weatherlink.com 1.10,2013-10-26 09:53:00,
2013-10-26 05:08:00,40.6,34.0,30.00,WNW,303,0.0,0.0,77,0.00,,,0.00,weatherlink.com 1.10,2013-10-26 10:08:00,
2013-10-26 05:23:00,39.8,34.0,30.01,WNW,302,0.0,0.0,79,0.00,,,0.00,weatherlink.com 1.10,2013-10-26 10:23:00,
2013-10-26 05:38:00,39.8,33.0,30.02,WNW,297,0.0,0.0,78,0.00,,,0.00,weatherlink.com 1.10,2013-10-26 10:38:00,
2013-10-26 05:53:00,38.9,33.0,30.03,NW,306,0.0,0.0,79,0.00,,,0.00,weatherlink.com 1.10,2013-10-26 10:53:00,
2013-10-26 06:08:00,38.7,33.0,30.04,WNW,297,0.0,0.0,79,0.00,,,0.00,weatherlink.com 1.10,2013-10-26 11:08:00,
2013-10-26 06:23:00,38.2,32.0,30.04,WNW,301,0.0,0.0,79,0.00,,,0.00,weatherlink.com 1.10,2013-10-26 11:23:00,
2013-10-26 06:38:00,37.6,32.0,30.05,WNW,292,0.0,0.0,79,0.00,,,0.00,weatherlink.com 1.10,2013-10-26 11:38:00,
2013-10-26 06:53:00,37.2,31.0,30.06,WNW,303,0.0,0.0,79,0.00,,,0.00,weatherlink.com 1.10,2013-10-26 11:53:00,
2013-10-26 07:08:00,36.6,31.0,30.06,NW,305,0.0,0.0,79,0.00,,,0.00,weatherlink.com 1.10,2013-10-26 12:08:00,
2013-10-26 07:23:00,36.3,30.0,30.07,WNW,301,0.0,0.0,79,0.00,,,0.00,weatherlink.com 1.10,2013-10-26 12:23:00,
2013-10-26 07:38:00,36.0,30.0,30.08,NW,311,0.0,0.0,78,0.00,,,0.00,weatherlink.com 1.10,2013-10-26 12:38:00,
2013-10-26 07:53:00,36.1,30.0,30.08,WNW,295,0.0,0.0,77,0.00,,,0.00,weatherlink.com 1.10,2013-10-26 12:53:00,
2013-10-26 08:08:00,36.0,29.0,30.09,WNW,300,0.0,0.0,77,0.00,,,0.00,weatherlink.com 1.10,2013-10-26 13:08:00,
2013-10-26 08:24:00,36.2,30.0,30.10,NW,308,0.0,0.0,78,0.00,,,0.00,weatherlink.com 1.10,2013-10-26 13:24:00,
2013-10-26 08:39:00,37.0,30.0,30.11,NW,321,0.0,0.0,77,0.00,,,0.00,weatherlink.com 1.10,2013-10-26 13:39:00,
2013-10-26 08:54:00,36.9,30.0,30.11,WNW,296,0.0,0.0,77,0.00,,,0.00,weatherlink.com 1.10,2013-10-26 13:54:00,
2013-10-26 09:09:00,37.3,30.0,30.12,NW,305,0.0,0.0,75,0.00,,,0.00,weatherlink.com 1.10,2013-10-26 14:09:00,
2013-10-26 09:24:00,38.0,30.0,30.12,NW,322,0.0,0.0,73,0.00,,,0.00,weatherlink.com 1.10,2013-10-26 14:24:00,
2013-10-26 09:39:00,38.4,30.0,30.13,NW,307,0.0,0.0,72,0.00,,,0.00,weatherlink.com 1.10,2013-10-26 14:39:00,
2013-10-26 09:54:00,38.4,30.0,30.13,NW,308,0.0,0.0,71,0.00,,,0.00,weatherlink.com 1.10,2013-10-26 14:54:00,
2013-10-26 10:09:00,39.0,30.0,30.13,WNW,297,0.0,0.0,70,0.00,,,0.00,weatherlink.com 1.10,2013-10-26 15:09:00,
2013-10-26 10:24:00,40.1,30.0,30.14,NNW,328,0.0,0.0,67,0.00,,,0.00,weatherlink.com 1.10,2013-10-26 15:24:00,
2013-10-26 10:39:00,41.2,30.0,30.14,WNW,300,0.0,0.0,64,0.00,,,0.00,weatherlink.com 1.10,2013-10-26 15:39:00,
2013-10-26 10:54:00,41.8,29.0,30.14,NW,307,0.0,0.0,62,0.00,,,0.00,weatherlink.com 1.10,2013-10-26 15:54:00,
2013-10-26 11:09:00,42.7,30.0,30.15,WNW,290,0.0,0.0,62,0.00,,,0.00,weatherlink.com 1.10,2013-10-26 16:09:00,
2013-10-26 11:24:00,43.1,29.0,30.16,NW,325,0.0,0.0,59,0.00,,,0.00,weatherlink.com 1.10,2013-10-26 16:24:00,
2013-10-26 11:39:00,44.0,29.0,30.16,NW,304,0.0,0.0,57,0.00,,,0.00,weatherlink.com 1.10,2013-10-26 16:39:00,
2013-10-26 11:54:00,44.7,29.0,30.16,NW,304,0.0,0.0,54,0.00,,,0.00,weatherlink.com 1.10,2013-10-26 16:54:00,
2013-10-26 12:09:00,45.3,28.0,30.16,NNW,331,0.0,0.0,52,0.00,,,0.00,weatherlink.com 1.10,2013-10-26 17:09:00,
2013-10-26 12:24:00,45.3,28.0,30.17,WNW,296,0.0,0.0,52,0.00,,,0.00,weatherlink.com 1.10,2013-10-26 17:24:00,
2013-10-26 12:39:00,45.6,29.0,30.17,WNW,289,0.0,0.0,53,0.00,,,0.00,weatherlink.com 1.10,2013-10-26 17:39:00,
2013-10-26 12:54:00,46.0,30.0,30.17,NW,319,0.0,0.0,53,0.00,,,0.00,weatherlink.com 1.10,2013-10-26 17:54:00,
2013-10-26 13:09:00,46.5,29.0,30.17,WNW,297,0.0,0.0,51,0.00,,,0.00,weatherlink.com 1.10,2013-10-26 18:09:00,
2013-10-26 13:24:00,46.3,29.0,30.17,WNW,300,0.0,0.0,51,0.00,,,0.00,weatherlink.com 1.10,2013-10-26 18:24:00,
2013-10-26 13:39:00,46.4,29.0,30.16,NW,314,0.0,0.0,51,0.00,,,0.00,weatherlink.com 1.10,2013-10-26 18:39:00,
2013-10-26 13:54:00,46.9,28.0,30.16,NNW,334,0.0,0.0,49,0.00,,,0.00,weatherlink.com 1.10,2013-10-26 18:54:00,
2013-10-26 14:09:00,47.6,28.0,30.16,NW,306,0.0,0.0,47,0.00,,,0.00,weatherlink.com 1.10,2013-10-26 19:09:00,
2013-10-26 14:24:00,47.7,29.0,30.16,NW,313,0.0,0.0,48,0.00,,,0.00,weatherlink.com 1.10,2013-10-26 19:24:00,
2013-10-26 14:39:00,48.2,28.0,30.16,NW,326,0.0,0.0,45,0.00,,,0.00,weatherlink.com 1.10,2013-10-26 19:39:00,
2013-10-26 14:54:00,48.4,28.0,30.16,NW,319,0.0,0.0,45,0.00,,,0.00,weatherlink.com 1.10,2013-10-26 19:54:00,
2013-10-26 15:09:00,48.1,28.0,30.16,WNW,302,0.0,0.0,45,0.00,,,0.00,weatherlink.com 1.10,2013-10-26 20:09:00,
2013-10-26 15:24:00,48.1,28.0,30.16,WNW,296,0.0,0.0,45,0.00,,,0.00,weatherlink.com 1.10,2013-10-26 20:24:00,
2013-10-26 15:39:00,48.3,27.0,30.15,NW,307,0.0,0.0,44,0.00,,,0.00,weatherlink.com 1.10,2013-10-26 20:39:00,
2013-10-26 15:54:00,48.2,27.0,30.16,NW,304,0.0,0.0,44,0.00,,,0.00,weatherlink.com 1.10,2013-10-26 20:54:00,
2013-10-26 16:09:00,48.0,27.0,30.16,NW,304,0.0,0.0,45,0.00,,,0.00,weatherlink.com 1.10,2013-10-26 21:09:00,
2013-10-26 16:24:00,48.1,28.0,30.16,WNW,296,0.0,0.0,45,0.00,,,0.00,weatherlink.com 1.10,2013-10-26 21:24:00,
2013-10-26 16:39:00,47.9,28.0,30.16,NW,316,0.0,0.0,46,0.00,,,0.00,weatherlink.com 1.10,2013-10-26 21:39:00,
2013-10-26 16:54:00,48.0,28.0,30.16,NW,311,0.0,0.0,46,0.00,,,0.00,weatherlink.com 1.10,2013-10-26 21:54:00,
2013-10-26 17:09:00,47.6,28.0,30.16,WNW,297,0.0,0.0,47,0.00,,,0.00,weatherlink.com 1.10,2013-10-26 22:09:00,
2013-10-26 17:24:00,46.8,27.0,30.16,WNW,292,0.0,0.0,47,0.00,,,0.00,weatherlink.com 1.10,2013-10-26 22:24:00,
2013-10-26 17:39:00,46.3,28.0,30.16,WNW,302,0.0,0.0,49,0.00,,,0.00,weatherlink.com 1.10,2013-10-26 22:39:00,
2013-10-26 17:54:00,45.2,28.0,30.16,WNW,298,0.0,0.0,51,0.00,,,0.00,weatherlink.com 1.10,2013-10-26 22:54:00,
2013-10-26 18:09:00,43.5,28.0,30.16,WNW,299,0.0,0.0,54,0.00,,,0.00,weatherlink.com 1.10,2013-10-26 23:09:00,
2013-10-26 18:24:00,41.9,27.0,30.16,NW,304,0.0,0.0,56,0.00,,,0.00,weatherlink.com 1.10,2013-10-26 23:24:00,
2013-10-26 18:39:00,40.4,27.0,30.16,WNW,297,0.0,0.0,59,0.00,,,0.00,weatherlink.com 1.10,2013-10-26 23:39:00,
2013-10-26 18:54:00,40.2,27.0,30.16,NW,309,0.0,0.0,60,0.00,,,0.00,weatherlink.com 1.10,2013-10-26 23:54:00,
2013-10-26 19:09:00,40.2,27.0,30.17,NW,309,0.0,0.0,60,0.00,,,0.00,weatherlink.com 1.10,2013-10-27 00:09:00,
2013-10-26 19:25:00,39.4,27.0,30.18,NW,310,0.0,0.0,61,0.00,,,0.00,weatherlink.com 1.10,2013-10-27 00:25:00,
2013-10-26 19:39:00,37.7,26.0,30.18,NW,316,0.0,0.0,64,0.00,,,0.00,weatherlink.com 1.10,2013-10-27 00:39:00,
2013-10-26 19:54:00,37.2,26.0,30.17,WNW,299,0.0,0.0,65,0.00,,,0.00,weatherlink.com 1.10,2013-10-27 00:54:00,
2013-10-26 20:10:00,37.3,26.0,30.17,NW,304,0.0,0.0,65,0.00,,,0.00,weatherlink.com 1.10,2013-10-27 01:10:00,
2013-10-26 20:25:00,36.6,27.0,30.17,WNW,301,0.0,0.0,67,0.00,,,0.00,weatherlink.com 1.10,2013-10-27 01:25:00,
2013-10-26 20:40:00,36.3,26.0,30.16,WNW,290,0.0,0.0,67,0.00,,,0.00,weatherlink.com 1.10,2013-10-27 01:40:00,
2013-10-26 20:55:00,36.8,27.0,30.16,NW,316,0.0,0.0,68,0.00,,,0.00,weatherlink.com 1.10,2013-10-27 01:55:00,
2013-10-26 21:10:00,36.9,27.0,30.16,NW,307,0.0,0.0,67,0.00,,,0.00,weatherlink.com 1.10,2013-10-27 02:10:00,
2013-10-26 21:25:00,35.5,26.0,30.17,NW,307,0.0,0.0,69,0.00,,,0.00,weatherlink.com 1.10,2013-10-27 02:25:00,
2013-10-26 21:40:00,34.8,26.0,30.17,NW,309,0.0,0.0,71,0.00,,,0.00,weatherlink.com 1.10,2013-10-27 02:40:00,
2013-10-26 21:55:00,35.2,27.0,30.18,WNW,302,0.0,0.0,71,0.00,,,0.00,weatherlink.com 1.10,2013-10-27 02:55:00,
2013-10-26 22:10:00,35.6,27.0,30.18,WNW,300,0.0,0.0,70,0.00,,,0.00,weatherlink.com 1.10,2013-10-27 03:10:00,
2013-10-26 22:25:00,35.8,27.0,30.17,NW,308,0.0,0.0,71,0.00,,,0.00,weatherlink.com 1.10,2013-10-27 03:25:00,
2013-10-26 22:40:00,33.1,26.0,30.16,WSW,257,0.0,0.0,75,0.00,,,0.00,weatherlink.com 1.10,2013-10-27 03:40:00,
2013-10-26 22:55:00,30.0,24.0,30.16,SW,226,0.0,0.0,78,0.00,,,0.00,weatherlink.com 1.10,2013-10-27 03:55:00,
2013-10-26 23:10:00,28.4,23.0,30.16,SW,214,0.0,0.0,81,0.00,,,0.00,weatherlink.com 1.10,2013-10-27 04:10:00,
2013-10-26 23:25:00,30.1,25.0,30.15,SW,235,0.0,0.0,81,0.00,,,0.00,weatherlink.com 1.10,2013-10-27 04:25:00,
2013-10-26 23:40:00,29.2,24.0,30.15,SSW,210,0.0,0.0,81,0.00,,,0.00,weatherlink.com 1.10,2013-10-27 04:40:00,
2013-10-26 23:55:00,28.9,24.0,30.15,WSW,242,0.0,0.0,83,0.00,,,0.00,weatherlink.com 1.10,2013-10-27 04:55:00,